createdAt,value
2018-06-08T00:00:30.057Z,52.10
2018-06-08T00:02:58.991Z,50.50
2018-06-08T00:05:27.719Z,49.43
2018-06-08T00:07:56.561Z,50.73
2018-06-08T00:10:25.498Z,50.30
2018-06-08T00:12:54.446Z,51.57
2018-06-08T00:15:23.405Z,52.17
2018-06-08T00:17:52.129Z,50.83
2018-06-08T00:20:20.729Z,58.90
2018-06-08T00:22:49.313Z,55.87
2018-06-08T00:25:18.151Z,58.60
2018-06-08T00:27:47.104Z,61.43
2018-06-08T00:30:16.070Z,58.47
2018-06-08T00:32:44.894Z,59.80
2018-06-08T00:35:13.731Z,62.27
2018-06-08T00:37:42.705Z,59.63
2018-06-08T00:40:11.662Z,62.60
2018-06-08T00:42:40.643Z,66.77
2018-06-08T00:45:09.352Z,61.53
2018-06-08T00:47:38.210Z,59.47
2018-06-08T00:50:07.159Z,65.27
2018-06-08T00:52:35.874Z,61.47
2018-06-08T00:55:04.999Z,63.03
2018-06-08T00:57:33.753Z,71.70
2018-06-08T01:00:02.583Z,62.47
2018-06-08T01:02:31.551Z,61.10
2018-06-08T01:05:00.292Z,71.20
2018-06-08T01:07:29.110Z,63.13
2018-06-08T01:09:58.085Z,67.10
2018-06-08T01:12:27.187Z,65.43
2018-06-08T01:14:56.047Z,62.60
2018-06-08T01:17:24.813Z,70.83
2018-06-08T01:19:53.703Z,68.70
2018-06-08T01:22:22.714Z,66.97
2018-06-08T01:24:51.738Z,73.87
2018-06-08T01:27:20.732Z,67.40
2018-06-08T01:29:49.460Z,62.60
2018-06-08T01:32:18.279Z,68.87
2018-06-08T01:34:47.279Z,66.97
2018-06-08T01:37:16.250Z,66.60
2018-06-08T01:39:45.010Z,69.80
2018-06-08T01:42:13.615Z,76.27
2018-06-08T01:44:42.177Z,70.53
2018-06-08T01:47:11.025Z,71.27
2018-06-08T01:49:39.757Z,66.50
2018-06-08T01:52:08.386Z,69.93
2018-06-08T01:54:37.214Z,71.07
2018-06-08T01:57:06.162Z,69.83
2018-06-08T01:59:34.905Z,66.20
2018-06-08T02:02:03.686Z,75.67
2018-06-08T02:04:32.523Z,80.37
2018-06-08T02:07:01.482Z,80.73
2018-06-08T02:09:30.436Z,76.60
2018-06-08T02:11:59.163Z,86.73
2018-06-08T02:14:28.014Z,91.13
2018-06-08T02:16:56.975Z,93.60
2018-06-08T02:19:25.677Z,93.80
2018-06-08T02:21:54.547Z,100.40
2018-06-08T02:24:23.514Z,101.93
2018-06-08T02:26:52.233Z,97.80
2018-06-08T02:29:20.898Z,99.23
2018-06-08T02:31:49.730Z,93.90
2018-06-08T02:34:18.497Z,92.67
2018-06-08T02:36:47.375Z,96.37
2018-06-08T02:39:16.102Z,98.73
2018-06-08T02:41:44.741Z,96.47
2018-06-08T02:44:13.636Z,95.80
2018-06-08T02:46:42.422Z,102.37
2018-06-08T02:49:11.014Z,106.50
2018-06-08T02:51:39.850Z,100.83
2018-06-08T02:54:08.582Z,113.40
2018-06-08T02:56:37.190Z,105.50
2018-06-08T02:59:06.049Z,111.57
2018-06-08T03:01:34.991Z,104.00
2018-06-08T03:04:03.718Z,106.63
2018-06-08T03:06:32.542Z,104.27
2018-06-08T03:09:01.288Z,99.83
2018-06-08T03:11:29.909Z,100.17
2018-06-08T03:13:58.742Z,91.67
2018-06-08T03:16:27.709Z,87.17
2018-06-08T03:18:56.494Z,74.10
2018-06-08T03:21:25.331Z,64.47
2018-06-08T03:23:54.065Z,54.07
2018-06-08T03:26:22.673Z,51.53
2018-06-08T03:28:51.486Z,46.83
2018-06-08T03:31:20.471Z,47.97
2018-06-08T03:33:49.217Z,43.77
2018-06-08T03:36:18.034Z,39.63
2018-06-08T03:38:46.769Z,38.17
2018-06-08T03:41:15.358Z,35.87
2018-06-08T03:43:44.231Z,32.40
2018-06-08T03:46:14.054Z,32.70
2018-06-08T03:48:42.882Z,33.37
2018-06-08T03:51:11.617Z,30.40
2018-06-08T03:53:40.429Z,27.93
2018-06-08T03:56:09.146Z,27.83
2018-06-08T03:58:37.762Z,27.00
2018-06-08T04:01:07.534Z,24.60
2018-06-08T04:03:36.266Z,26.50
2018-06-08T04:06:05.074Z,24.73
2018-06-08T04:08:34.023Z,24.97
2018-06-08T04:11:02.762Z,27.63
2018-06-08T04:13:31.605Z,25.43
2018-06-08T04:16:00.326Z,23.63
2018-06-08T04:18:28.917Z,23.70
2018-06-08T04:20:57.770Z,24.27
2018-06-08T04:23:26.714Z,26.63
2018-06-08T04:25:55.434Z,26.30
2018-06-08T04:28:24.888Z,26.90
2018-06-08T04:30:53.590Z,29.97
2018-06-08T04:33:22.438Z,27.90
2018-06-08T04:35:51.146Z,28.87
2018-06-08T04:38:19.741Z,30.30
2018-06-08T04:40:48.598Z,31.47
2018-06-08T04:43:17.389Z,31.53
2018-06-08T04:45:45.970Z,29.30
2018-06-08T04:48:14.584Z,33.87
2018-06-08T04:50:43.422Z,32.03
2018-06-08T04:53:12.131Z,32.67
2018-06-08T04:55:40.761Z,35.17
2018-06-08T04:58:09.646Z,32.03
2018-06-08T05:00:38.386Z,33.50
2018-06-08T05:03:06.978Z,32.93
2018-06-08T05:05:35.814Z,33.43
2018-06-08T05:08:04.775Z,35.80
2018-06-08T05:10:33.478Z,32.27
2018-06-08T05:13:02.318Z,34.53
2018-06-08T05:15:31.041Z,35.40
2018-06-08T05:17:59.648Z,35.33
2018-06-08T05:20:28.594Z,36.93
2018-06-08T05:22:57.299Z,37.37
2018-06-08T05:25:25.889Z,34.47
2018-06-08T05:27:54.737Z,36.47
2018-06-08T05:30:25.133Z,36.17
2018-06-08T05:32:53.730Z,38.60
2018-06-08T05:35:22.322Z,37.03
2018-06-08T05:37:51.173Z,35.10
2018-06-08T05:40:20.119Z,37.03
2018-06-08T05:42:48.835Z,36.87
2018-06-08T05:45:17.679Z,34.70
2018-06-08T05:47:46.708Z,34.90
2018-06-08T05:50:15.686Z,40.70
2018-06-08T05:52:44.453Z,33.43
2018-06-08T05:55:13.066Z,33.67
2018-06-08T05:57:41.919Z,34.43
2018-06-08T06:00:10.870Z,33.47
2018-06-08T06:02:39.598Z,35.10
2018-06-08T06:05:08.214Z,33.03
2018-06-08T06:07:36.806Z,31.60
2018-06-08T06:10:05.978Z,33.30
2018-06-08T06:12:34.946Z,33.57
2018-06-08T06:15:03.878Z,30.40
2018-06-08T06:17:32.834Z,30.60
2018-06-08T06:20:01.818Z,32.87
2018-06-08T06:22:30.534Z,32.77
2018-06-08T06:24:59.381Z,29.60
2018-06-08T06:27:28.327Z,30.93
2018-06-08T06:29:57.306Z,29.57
2018-06-08T06:32:26.307Z,26.93
2018-06-08T06:34:54.970Z,27.13
2018-06-08T06:37:23.873Z,27.73
2018-06-08T06:39:52.586Z,26.77
2018-06-08T06:42:21.182Z,27.00
2018-06-08T06:44:50.016Z,23.23
2018-06-08T06:47:19.099Z,25.83
2018-06-08T06:49:47.806Z,24.83
2018-06-08T06:52:16.686Z,24.27
2018-06-08T06:54:45.692Z,27.13
2018-06-08T06:57:14.685Z,27.07
2018-06-08T06:59:43.674Z,28.27
2018-06-08T07:02:12.437Z,26.90
2018-06-08T07:04:41.287Z,26.17
2018-06-08T07:07:10.270Z,29.00
2018-06-08T07:09:39.258Z,28.00
2018-06-08T07:12:08.270Z,28.40
2018-06-08T07:14:37.030Z,28.23
2018-06-08T07:17:05.933Z,29.37
2018-06-08T07:19:34.922Z,26.27
2018-06-08T07:22:03.670Z,27.33
2018-06-08T07:24:32.554Z,26.63
2018-06-08T07:27:01.306Z,26.73
2018-06-08T07:29:30.173Z,25.97
2018-06-08T07:31:58.922Z,25.00
2018-06-08T07:34:27.534Z,23.17
2018-06-08T07:36:56.398Z,20.33
2018-06-08T07:39:25.334Z,21.20
2018-06-08T07:41:54.058Z,20.13
2018-06-08T07:44:22.887Z,20.27
2018-06-08T07:46:51.971Z,19.90
2018-06-08T07:49:20.642Z,20.20
2018-06-08T07:51:49.526Z,23.50
2018-06-08T07:54:18.275Z,20.30
2018-06-08T07:56:46.889Z,19.30
2018-06-08T07:59:15.511Z,19.73
2018-06-08T08:01:44.402Z,20.33
2018-06-08T08:04:13.153Z,19.10
2018-06-08T08:06:41.773Z,17.53
2018-06-08T08:09:11.027Z,18.57
2018-06-08T08:11:39.737Z,18.80
2018-06-08T08:14:08.353Z,20.30
2018-06-08T08:16:37.253Z,18.30
2018-06-08T08:19:06.006Z,18.73
2018-06-08T08:21:34.870Z,16.67
2018-06-08T08:24:03.629Z,16.30
2018-06-08T08:26:32.218Z,13.80
2018-06-08T08:29:01.053Z,13.90
2018-06-08T08:31:30.013Z,12.93
2018-06-08T08:33:58.982Z,11.83
2018-06-08T08:36:27.998Z,12.53
2018-06-08T08:38:56.733Z,12.33
2018-06-08T08:41:25.580Z,12.17
2018-06-08T08:43:54.282Z,11.67
2018-06-08T08:46:22.881Z,10.80
2018-06-08T08:48:51.728Z,9.80
2018-06-08T08:51:20.670Z,8.93
2018-06-08T08:53:49.392Z,8.80
2018-06-08T08:56:18.208Z,9.40
2018-06-08T08:58:47.169Z,8.17
2018-06-08T09:01:16.102Z,9.03
2018-06-08T09:03:44.810Z,9.83
2018-06-08T09:06:13.380Z,10.53
2018-06-08T09:08:42.270Z,9.87
2018-06-08T09:11:11.120Z,9.87
2018-06-08T09:13:39.826Z,9.77
2018-06-08T09:16:08.442Z,9.60
2018-06-08T09:18:37.501Z,9.93
2018-06-08T09:21:06.070Z,10.60
2018-06-08T09:23:34.694Z,11.73
2018-06-08T09:26:03.304Z,12.73
2018-06-08T09:28:32.114Z,12.00
2018-06-08T09:31:00.846Z,11.03
2018-06-08T09:33:29.663Z,11.53
2018-06-08T09:35:58.630Z,12.67
2018-06-08T09:38:27.365Z,12.40
2018-06-08T09:40:56.181Z,14.27
2018-06-08T09:43:25.226Z,27.50
2018-06-08T09:45:54.190Z,13.13
2018-06-08T09:48:23.175Z,14.43
2018-06-08T09:50:51.928Z,14.73
2018-06-08T09:53:20.798Z,15.00
2018-06-08T09:55:49.803Z,16.77
2018-06-08T09:58:18.781Z,17.07
2018-06-08T10:00:47.514Z,16.80
2018-06-08T10:03:16.138Z,17.33
2018-06-08T10:05:44.762Z,16.73
2018-06-08T10:08:13.637Z,17.67
2018-06-08T10:10:42.413Z,17.33
2018-06-08T10:13:11.018Z,19.17
2018-06-08T10:15:39.846Z,17.43
2018-06-08T10:18:08.578Z,18.37
2018-06-08T10:20:37.179Z,18.17
2018-06-08T10:23:06.030Z,19.57
2018-06-08T10:25:34.974Z,17.10
2018-06-08T10:28:03.682Z,18.93
2018-06-08T10:30:32.506Z,15.93
2018-06-08T10:33:01.235Z,17.33
2018-06-08T10:35:29.829Z,19.00
2018-06-08T10:37:58.433Z,17.77
2018-06-08T10:40:27.262Z,17.73
2018-06-08T10:42:55.982Z,18.50
2018-06-08T10:45:27.766Z,18.17
2018-06-08T10:47:56.366Z,18.07
2018-06-08T10:50:25.202Z,20.70
2018-06-08T10:52:54.154Z,19.00
2018-06-08T10:55:22.906Z,21.07
2018-06-08T10:57:51.865Z,21.17
2018-06-08T11:00:20.617Z,25.70
2018-06-08T11:02:49.261Z,26.07
2018-06-08T11:05:18.134Z,27.90
2018-06-08T11:07:46.883Z,23.50
2018-06-08T11:10:15.493Z,25.37
2018-06-08T11:12:44.322Z,26.47
2018-06-08T11:15:13.042Z,24.03
2018-06-08T11:17:41.637Z,23.67
2018-06-08T11:20:10.230Z,22.47
2018-06-08T11:22:39.058Z,25.27
2018-06-08T11:25:07.797Z,24.77
2018-06-08T11:27:36.411Z,21.90
2018-06-08T11:30:05.282Z,22.20
2018-06-08T11:32:34.029Z,23.37
2018-06-08T11:35:02.624Z,24.67
2018-06-08T11:37:31.521Z,25.07
2018-06-08T11:40:00.269Z,27.07
2018-06-08T11:42:28.891Z,26.17
2018-06-08T11:44:57.751Z,27.17
2018-06-08T11:47:26.505Z,29.23
2018-06-08T11:49:55.122Z,27.70
2018-06-08T11:52:24.034Z,28.53
2018-06-08T11:54:53.035Z,29.07
2018-06-08T11:57:21.813Z,30.10
2018-06-08T11:59:50.723Z,32.37
2018-06-08T12:02:19.478Z,33.77
2018-06-08T12:04:48.098Z,33.93
2018-06-08T12:07:16.975Z,33.80
2018-06-08T12:09:45.757Z,33.83
2018-06-08T12:12:14.398Z,34.83
2018-06-08T12:14:43.296Z,36.90
2018-06-08T12:17:12.084Z,35.53
2018-06-08T12:19:40.722Z,39.70
2018-06-08T12:22:09.599Z,39.50
2018-06-08T12:24:38.339Z,38.30
2018-06-08T12:27:07.813Z,42.20
2018-06-08T12:29:36.703Z,43.57
2018-06-08T12:32:05.720Z,41.63
2018-06-08T12:34:34.671Z,43.77
2018-06-08T12:37:03.411Z,43.80
2018-06-08T12:39:32.007Z,42.53
2018-06-08T12:42:00.867Z,41.50
2018-06-08T12:44:29.575Z,41.70
2018-06-08T12:46:58.461Z,42.23
2018-06-08T12:49:27.467Z,41.90
2018-06-08T12:51:56.226Z,41.63
2018-06-08T12:54:25.132Z,43.03
2018-06-08T12:56:53.886Z,44.10
2018-06-08T12:59:22.514Z,44.60
2018-06-08T13:01:51.420Z,44.40
2018-06-08T13:04:20.170Z,47.87
2018-06-08T13:06:48.793Z,42.90
2018-06-08T13:09:17.683Z,46.83
2018-06-08T13:11:46.449Z,45.87
2018-06-08T13:14:15.085Z,43.70
2018-06-08T13:16:43.942Z,46.00
2018-06-08T13:19:12.673Z,48.17
2018-06-08T13:21:41.264Z,49.10
2018-06-08T13:24:10.111Z,50.50
2018-06-08T13:26:38.878Z,48.43
2018-06-08T13:29:07.512Z,49.20
2018-06-08T13:31:36.123Z,52.33
2018-06-08T13:34:05.286Z,52.37
2018-06-08T13:36:34.011Z,55.50
2018-06-08T13:39:02.887Z,64.20
2018-06-08T13:41:31.842Z,58.10
2018-06-08T13:44:00.593Z,57.33
2018-06-08T13:46:40.727Z,60.03
2018-06-08T13:49:09.809Z,59.77
2018-06-08T13:51:38.639Z,55.37
2018-06-08T13:54:07.865Z,59.87
2018-06-08T13:56:37.539Z,62.93
2018-06-08T13:59:06.217Z,62.17
2018-06-08T14:01:34.837Z,62.77
2018-06-08T14:04:03.509Z,66.53
2018-06-08T14:06:32.341Z,63.60
2018-06-08T14:09:01.146Z,67.07
2018-06-08T14:11:29.799Z,69.07
2018-06-08T14:13:58.506Z,69.73
2018-06-08T14:16:27.373Z,65.73
2018-06-08T14:18:56.106Z,69.20
2018-06-08T14:21:24.956Z,69.47
2018-06-08T14:23:53.690Z,75.60
2018-06-08T14:26:22.298Z,74.77
2018-06-08T14:28:51.151Z,79.17
2018-06-08T14:31:20.123Z,84.07
2018-06-08T14:33:49.080Z,84.83
2018-06-08T14:36:18.039Z,84.03
2018-06-08T14:38:46.788Z,82.80
2018-06-08T14:41:15.635Z,84.97
2018-06-08T14:43:44.603Z,87.43
2018-06-08T14:46:13.319Z,83.97
2018-06-08T14:48:42.182Z,87.93
2018-06-08T14:51:10.958Z,83.90
2018-06-08T14:53:39.823Z,86.27
2018-06-08T14:56:08.413Z,83.37
2018-06-08T14:58:37.063Z,86.60
2018-06-08T15:01:05.698Z,84.50
2018-06-08T15:03:34.624Z,83.43
2018-06-08T15:06:03.617Z,91.93
2018-06-08T15:08:32.367Z,90.00
2018-06-08T15:11:00.987Z,87.27
2018-06-08T15:13:29.890Z,88.30
2018-06-08T15:15:58.657Z,89.20
2018-06-08T15:18:27.309Z,85.87
2018-06-08T15:20:56.176Z,87.53
2018-06-08T15:23:24.908Z,88.90
2018-06-08T15:25:53.759Z,87.13
2018-06-08T15:28:22.745Z,84.30
2018-06-08T15:30:51.715Z,85.57
2018-06-08T15:33:20.698Z,87.40
2018-06-08T15:35:49.422Z,90.80
2018-06-08T15:38:18.034Z,84.23
2018-06-08T15:40:46.866Z,91.33
2018-06-08T15:43:15.590Z,79.27
2018-06-08T15:45:44.419Z,75.17
2018-06-08T15:48:13.433Z,74.90
2018-06-08T15:50:42.150Z,82.33
2018-06-08T15:53:11.090Z,77.77
2018-06-08T15:55:39.849Z,83.73
2018-06-08T15:58:08.457Z,79.77
2018-06-08T16:00:37.442Z,84.87
2018-06-08T16:03:06.194Z,83.90
2018-06-08T16:05:34.837Z,85.30
2018-06-08T16:08:03.452Z,84.70
2018-06-08T16:10:32.338Z,89.33
2018-06-08T16:13:01.094Z,86.90
2018-06-08T16:15:29.987Z,85.13
2018-06-08T16:17:58.986Z,92.37
2018-06-08T16:20:27.742Z,94.13
2018-06-08T16:22:56.622Z,84.47
2018-06-08T16:25:25.358Z,79.37
2018-06-08T16:27:54.200Z,77.37
2018-06-08T16:30:23.143Z,75.47
2018-06-08T16:32:51.885Z,69.00
2018-06-08T16:35:20.739Z,63.07
2018-06-08T16:37:49.706Z,59.23
2018-06-08T16:40:18.444Z,60.63
2018-06-08T16:42:47.247Z,52.33
2018-06-08T16:45:16.220Z,52.83
2018-06-08T16:47:45.179Z,54.40
2018-06-08T16:50:14.194Z,54.10
2018-06-08T16:52:42.925Z,57.87
2018-06-08T16:55:11.822Z,53.63
2018-06-08T16:57:40.799Z,49.30
2018-06-08T17:00:09.758Z,46.40
2018-06-08T17:02:38.719Z,46.87
2018-06-08T17:05:07.440Z,47.27
2018-06-08T17:07:36.805Z,41.83
2018-06-08T17:10:05.398Z,41.43
2018-06-08T17:12:34.013Z,40.20
2018-06-08T17:15:02.906Z,39.63
2018-06-08T17:17:31.626Z,39.47
2018-06-08T17:20:00.246Z,38.70
2018-06-08T17:22:29.134Z,35.90
2018-06-08T17:24:57.842Z,37.83
2018-06-08T17:27:26.471Z,31.93
2018-06-08T17:29:55.366Z,33.30
2018-06-08T17:32:24.102Z,32.67
2018-06-08T17:34:52.726Z,35.30
2018-06-08T17:37:21.635Z,33.50
2018-06-08T17:39:51.918Z,35.20
2018-06-08T17:42:20.654Z,35.90
2018-06-08T17:44:49.301Z,35.93
2018-06-08T17:47:18.166Z,35.87
2018-06-08T17:49:46.950Z,35.87
2018-06-08T17:52:15.593Z,35.60
2018-06-08T17:54:44.211Z,35.77
2018-06-08T17:57:13.160Z,36.57
2018-06-08T17:59:41.852Z,37.87
2018-06-08T18:02:10.746Z,37.23
2018-06-08T18:04:39.529Z,37.67
2018-06-08T18:07:08.211Z,40.37
2018-06-08T18:09:37.103Z,35.30
2018-06-08T18:12:05.870Z,37.60
2018-06-08T18:14:34.494Z,38.60
2018-06-08T18:17:03.415Z,38.10
2018-06-08T18:19:32.474Z,37.37
2018-06-08T18:22:01.493Z,35.63
2018-06-08T18:24:30.534Z,40.07
2018-06-08T18:26:59.301Z,35.97
2018-06-08T18:29:28.245Z,36.00
2018-06-08T18:31:56.982Z,39.03
2018-06-08T18:34:25.633Z,39.50
2018-06-08T18:36:54.267Z,38.90
2018-06-08T18:39:23.145Z,42.20
2018-06-08T18:41:51.914Z,42.53
2018-06-08T18:44:20.803Z,40.67
2018-06-08T18:46:49.497Z,42.03
2018-06-08T18:49:18.090Z,45.23
2018-06-08T18:51:46.967Z,46.33
2018-06-08T18:54:15.931Z,45.53
2018-06-08T18:56:44.690Z,44.60
2018-06-08T18:59:13.311Z,47.57
2018-06-08T19:01:42.195Z,48.53
2018-06-08T19:04:10.961Z,44.60
2018-06-08T19:06:39.786Z,48.77
2018-06-08T19:09:08.908Z,50.13
2018-06-08T19:11:38.530Z,50.30
2018-06-08T19:14:07.285Z,51.80
2018-06-08T19:16:36.139Z,52.70
2018-06-08T19:19:05.112Z,49.37
2018-06-08T19:21:34.087Z,51.40
2018-06-08T19:24:03.068Z,51.83
2018-06-08T19:26:31.862Z,52.43
2018-06-08T19:29:00.497Z,50.60
2018-06-08T19:31:29.410Z,50.87
2018-06-08T19:33:58.146Z,49.23
2018-06-08T19:36:26.982Z,51.13
2018-06-08T19:38:56.031Z,51.13
2018-06-08T19:41:25.023Z,48.80
2018-06-08T19:43:54.052Z,50.60
2018-06-08T19:46:22.822Z,51.87
2018-06-08T19:48:51.700Z,53.20
2018-06-08T19:51:20.445Z,48.10
2018-06-08T19:53:49.067Z,51.27
2018-06-08T19:56:17.943Z,50.40
2018-06-08T19:58:46.738Z,56.97
2018-06-08T20:01:15.366Z,52.27
2018-06-08T20:03:44.291Z,54.73
2018-06-08T20:06:13.121Z,54.70
2018-06-08T20:08:41.759Z,56.40
2018-06-08T20:11:10.606Z,55.50
2018-06-08T20:13:39.361Z,53.30
2018-06-08T20:16:08.001Z,55.23
2018-06-08T20:18:36.918Z,55.87
2018-06-08T20:21:05.682Z,58.00
2018-06-08T20:23:34.329Z,60.90
2018-06-08T20:26:03.251Z,57.70
2018-06-08T20:28:32.291Z,55.80
2018-06-08T20:31:01.010Z,58.00
2018-06-08T20:33:29.607Z,60.07
2018-06-08T20:35:58.452Z,57.37
2018-06-08T20:38:27.198Z,60.50
2018-06-08T20:40:56.219Z,65.90
2018-06-08T20:43:24.947Z,61.23
2018-06-08T20:45:53.550Z,58.83
2018-06-08T20:48:22.402Z,61.93
2018-06-08T20:50:51.154Z,61.93
2018-06-08T20:53:19.804Z,62.87
2018-06-08T20:55:48.695Z,60.73
2018-06-08T20:58:22.025Z,62.60
2018-06-08T21:00:50.904Z,61.87
2018-06-08T21:03:19.693Z,64.67
2018-06-08T21:06:26.375Z,63.43
2018-06-08T21:08:55.286Z,62.40
2018-06-08T21:11:24.022Z,57.70
2018-06-08T21:13:52.659Z,61.17
2018-06-08T21:16:21.524Z,63.43
2018-06-08T21:18:50.244Z,58.73
2018-06-08T21:21:18.853Z,65.57
2018-06-08T21:23:47.697Z,60.63
2018-06-08T21:26:16.670Z,60.50
2018-06-08T21:28:45.421Z,62.83
2018-06-08T21:31:14.059Z,65.77
2018-06-08T21:33:42.937Z,67.63
2018-06-08T21:36:11.674Z,63.20
2018-06-08T21:38:40.525Z,64.00
2018-06-08T21:41:09.478Z,63.83
2018-06-08T21:43:38.490Z,62.63
2018-06-08T21:46:07.472Z,64.77
2018-06-08T21:48:36.191Z,64.70
2018-06-08T21:51:05.090Z,71.17
2018-06-08T21:53:33.811Z,66.43
2018-06-08T21:56:02.390Z,63.00
2018-06-08T21:58:30.994Z,68.40
2018-06-08T22:00:59.851Z,66.10
2018-06-08T22:03:28.621Z,69.90
2018-06-08T22:05:57.458Z,71.37
2018-06-08T22:08:26.410Z,67.77
2018-06-08T22:10:55.130Z,70.23
2018-06-08T22:13:23.967Z,65.57
2018-06-08T22:15:52.713Z,69.53
2018-06-08T22:18:21.314Z,63.77
2018-06-08T22:20:50.163Z,66.93
2018-06-08T22:23:19.121Z,69.47
2018-06-08T22:25:47.888Z,63.43
2018-06-08T22:28:16.762Z,72.80
2018-06-08T22:30:45.485Z,74.53
2018-06-08T22:33:14.085Z,69.40
2018-06-08T22:35:42.705Z,72.23
2018-06-08T22:38:11.534Z,72.20
2018-06-08T22:40:40.246Z,72.23
2018-06-08T22:43:09.098Z,75.97
2018-06-08T22:45:38.067Z,77.37
2018-06-08T22:48:06.799Z,70.73
2018-06-08T22:50:35.637Z,74.93
2018-06-08T22:53:04.610Z,70.77
2018-06-08T22:55:33.374Z,72.33
2018-06-08T22:58:02.327Z,72.47
2018-06-08T23:00:31.069Z,72.50
2018-06-08T23:02:59.673Z,72.50
2018-06-08T23:05:28.510Z,67.90
2018-06-08T23:07:57.258Z,68.60
2018-06-08T23:10:25.894Z,70.43
2018-06-08T23:12:54.738Z,73.07
2018-06-08T23:15:23.709Z,71.40
2018-06-08T23:17:52.674Z,75.30
2018-06-08T23:20:21.635Z,71.47
2018-06-08T23:22:50.405Z,71.97
2018-06-08T23:25:19.290Z,66.67
2018-06-08T23:27:48.046Z,70.43
2018-06-08T23:30:16.675Z,73.10
2018-06-08T23:32:45.564Z,76.00
2018-06-08T23:35:14.313Z,71.50
2018-06-08T23:37:42.950Z,69.87
2018-06-08T23:40:11.814Z,74.70
2018-06-08T23:42:40.838Z,70.23
2018-06-08T23:45:09.596Z,69.20
2018-06-08T23:47:38.521Z,69.57
2018-06-08T23:50:07.278Z,65.87
2018-06-08T23:52:35.903Z,61.43
2018-06-08T23:55:04.520Z,62.60
2018-06-08T23:57:33.358Z,63.70
